Pagrindinis puslapis
METAR-TAF:

METAR-TAF

Oro uostai :

Sjenfuegosas, Kuba

platuma: 22-09N, ilguma: 080-24W, Aukštis: 39 m

Dabartinis oras

Ataskaita buvo paskelbta 30 minutes, ne 12:50 UTC
Vėjas 5 kt iš Šiaurės Rytų, svyruoja nuo Šiaurės/Šiaurės Rytų ir Rytų
Temperatūra 19°C
Drėgmė 88%
Slėgis 1019 hPa
Matomumas 10 km arba daugiau
Mažai debesys ne aukštis 2500 ft

METAR: MUCF 301250Z 05005KT 020V080 9999 FEW025 19/17 Q1019

Laikas: 08:20 (13:20 UTC)

Prognozė

Ataskaita buvo paskelbta 2 valandos ir 20 minutes, ne 11:00 UTC
Prognozė galioja nuo 30 metu 12 UTC su 30 metu 24 UTC
Vėjas 3 kt nuo kintamojo kryptimis
Matomumas: 9000 m
Išsisklaidę debesys ne aukštis 2000 ft
Tapsmas
nuo 30 metu 15 UTC su 30 metu 17 UTC
Vėjas 10 kt iš Šiaurės Rytų

TAF: MUCF 301100Z 3012/3024 VRB03KT 9000 SCT020 BECMG 3015/3017 04010KT

Orai ataskaitas ir orų prognozės (METAR, TAF).

turimą stotys yra geltonos ir raudonos taškus žemėlapyje.

Perkelti pele per norėdami pamatyti stoties vardą.

Tada spustelėkite, norėdami matyti oro stebėjimo ir prognozės.

Norėdami pakeisti žemėlapį: spustelėkite ant žalios mygtukų su juodo kryžiaus žemyn,; žalią mygtuką su brūkšneliu, jei norite nutolinti; arba žalių rodyklių gretimoms žemėlapius.


METAR-TAF: